• Join FlightAware (Why Join?)
  • Login
  • US Flag 
01:22PM EST


 

Airport Tracker/Info


-or-


 

Live Flight TrackerFlight Track Log ✈ N912MF ✈ 02-May-2012 ✈ KGTF - KBFI

Flight Track Log - Related Links

Times and Time Zones

All times are in EDT time to prevent confusion due to time zone crossing. See the N912MF flight status page for this flight to view local times or setup timezone preferences in your user account.

Time Position Orientation Groundspeed Altitude Reporting Facility
EDT Latitude Longitude Course Direction KTS MPH feet Rate Location/Type
01:19AM 47.4661 -111.3900 254° West 139 160 4,700  Level Salt Lake Center
01:20AM 47.4556 -111.4442 277° West 139 160 6,500 1,680 Climbing Salt Lake Center
01:21AM 47.4608 -111.5078 275° West 154 177 8,200 1,740 Climbing Salt Lake Center
01:22AM 47.4647 -111.5739 277° West 159 183 10,100 1,620 Climbing Salt Lake Center
01:23AM 47.4703 -111.6453 276° West 166 191 11,600 1,680 Climbing Salt Lake Center
01:24AM 47.4753 -111.7189 276° West 174 200 13,500 1,740 Climbing Salt Lake Center
01:25AM 47.4800 -111.7878 276° West 173 199 15,200 1,740 Climbing Salt Lake Center
01:26AM 47.4850 -111.8564 275° West 171 197 17,100 1,620 Climbing Salt Lake Center
01:27AM 47.4883 -111.9133 277° West 156 180 18,500 1,200 Climbing Salt Lake Center
01:28AM 47.4928 -111.9689 278° West 143 165 19,600 720 Climbing Salt Lake Center
01:29AM 47.4983 -112.0314 274° West 147 169 20,000 180 Climbing Salt Lake Center
01:30AM 47.5022 -112.1097 278° West 176 203 20,000  Level Salt Lake Center
01:31AM 47.5097 -112.1933 274° West 196 226 20,000  Level Salt Lake Center
01:32AM 47.5147 -112.2939 275° West 205 236 20,000  Level Salt Lake Center
01:33AM 47.5203 -112.3803 275° West 208 239 20,000  Level Salt Lake Center
01:34AM 47.5253 -112.4667 276° West 210 242 20,000  Level Salt Lake Center
01:35AM 47.5314 -112.5514 276° West 209 241 20,000  Level Salt Lake Center
01:36AM 47.5372 -112.6369 276° West 209 241 20,000  Level Salt Lake Center
01:37AM 47.5428 -112.7225 276° West 210 242 20,000  Level Salt Lake Center
01:38AM 47.5486 -112.8094 276° West 211 243 20,000  Level Salt Lake Center
01:39AM 47.5550 -112.8950 275° West 210 242 20,000  Level Salt Lake Center
01:40AM 47.5600 -112.9806 276° West 210 242 20,000  Level Salt Lake Center
01:41AM 47.5658 -113.0675 274° West 211 243 20,000  Level Salt Lake Center
01:42AM 47.5700 -113.1553 275° West 213 245 20,000  Level Salt Lake Center
01:43AM 47.5747 -113.2428 275° West 213 245 20,000  Level Salt Lake Center
01:44AM 47.5797 -113.3283 276° West 211 243 20,000  Level Salt Lake Center
01:45AM 47.5869 -113.4314 275° West 210 242 20,000  Level Salt Lake Center
01:46AM 47.5919 -113.5200 275° West 212 244 20,000  Level Salt Lake Center
01:47AM 47.5967 -113.6081 274° West 214 246 20,000  Level Salt Lake Center
01:48AM 47.6008 -113.6956 274° West 214 246 20,000  Level Salt Lake Center
01:49AM 47.6050 -113.7853 275° West 216 249 20,000  Level Salt Lake Center
01:50AM 47.6097 -113.8747 274° West 217 250 20,000  Level Salt Lake Center
01:51AM 47.6153 -113.9806 275° West 216 249 20,000  Level Salt Lake Center
01:52AM 47.6200 -114.0686 274° West 215 247 20,000  Level Salt Lake Center
01:53AM 47.6242 -114.1572 274° West 215 247 20,000  Level Salt Lake Center
01:54AM 47.6286 -114.2444 274° West 213 245 20,000  Level Salt Lake Center
01:55AM 47.6328 -114.3333 274° West 215 247 20,000  Level Salt Lake Center
01:56AM 47.6372 -114.4225 275° West 216 249 20,000  Level Salt Lake Center
01:57AM 47.6419 -114.5117 274° West 215 247 20,000  Level Salt Lake Center
01:58AM 47.6458 -114.6006 274° West 216 249 20,000  Level Salt Lake Center
01:59AM 47.6500 -114.6897 274° West 217 250 20,000  Level Salt Lake Center
02:00AM 47.6544 -114.7781 273° West 216 249 20,000  Level Salt Lake Center
02:01AM 47.6578 -114.8686 274° West 218 251 20,000  Level Salt Lake Center
02:02AM 47.6619 -114.9600 274° West 221 254 20,000  Level Salt Lake Center
02:03AM 47.6664 -115.0500 274° West 220 253 20,000  Level Salt Lake Center
02:04AM 47.6706 -115.1397 273° West 219 252 20,000  Level Salt Lake Center
02:05AM 47.6736 -115.2300 273° West 219 252 20,000  Level Salt Lake Center
02:06AM 47.6769 -115.3208 274° West 220 253 20,000  Level Salt Lake Center
02:07AM 47.6811 -115.4119 274° West 221 254 20,000  Level Salt Lake Center
02:08AM 47.6856 -115.5036 274° West 222 255 20,000  Level Salt Lake Center
02:09AM 47.6894 -115.5942 273° West 222 255 20,000  Level Salt Lake Center
02:10AM 47.6928 -115.6853 273° West 222 255 20,000  Level Salt Lake Center
02:11AM 47.6961 -115.7756 273° West 221 254 20,000  Level Salt Lake Center
02:12AM 47.6992 -115.8669 270° West 221 254 20,000  Level Salt Lake Center
02:13AM 47.6992 -115.9569 272° West 221 254 20,000  Level Salt Lake Center
02:14AM 47.7011 -116.0489 273° West 221 254 20,000  Level Salt Lake Center
02:15AM 47.7044 -116.1414 273° West 223 257 20,000  Level Salt Lake Center
02:17AM 47.7092 -116.2697 273° West 224 258 20,000  Level Seattle Center
02:18AM 47.7122 -116.3631 273° West 225 259 20,000  Level Seattle Center
02:19AM 47.7156 -116.4558 273° West 226 260 20,000  Level Seattle Center
02:20AM 47.7189 -116.5481 273° West 225 259 20,000  Level Seattle Center
02:21AM 47.7219 -116.6406 273° West 225 259 20,000  Level Seattle Center
02:22AM 47.7250 -116.7325 272° West 224 258 20,000  Level Seattle Center
02:23AM 47.7275 -116.8258 273° West 226 260 20,000  Level Seattle Center
02:24AM 47.7303 -116.9181 272° West 226 260 20,000  Level Seattle Center
02:25AM 47.7328 -117.0106 273° West 226 260 20,000  Level Seattle Center
02:26AM 47.7356 -117.1022 273° West 226 260 20,000  Level Seattle Center
02:27AM 47.7383 -117.1950 272° West 228 262 20,000  Level Seattle Center
02:28AM 47.7403 -117.3069 272° West 228 262 20,000  Level Seattle Center
02:29AM 47.7419 -117.4003 273° West 228 262 20,000  Level Seattle Center
02:30AM 47.7447 -117.4961 271° West 231 266 20,000  Level Seattle Center
02:31AM 47.7461 -117.5903 272° West 230 265 20,000  Level Seattle Center
02:32AM 47.7478 -117.6847 272° West 230 265 20,000  Level Seattle Center
02:33AM 47.7503 -117.7803 271° West 231 266 20,000  Level Seattle Center
02:34AM 47.7511 -117.8758 271° West 231 266 20,000  Level Seattle Center
02:35AM 47.7519 -117.9711 271° West 233 268 20,000  Level Seattle Center
02:36AM 47.7533 -118.0667 272° West 232 267 20,000  Level Seattle Center
02:37AM 47.7550 -118.1614 272° West 231 266 20,000  Level Seattle Center
02:38AM 47.7567 -118.2578 272° West 233 268 20,000  Level Seattle Center
02:39AM 47.7589 -118.3542 271° West 234 269 20,000  Level Seattle Center
02:40AM 47.7603 -118.4514 271° West 236 272 20,000  Level Seattle Center
02:41AM 47.7611 -118.5472 271° West 234 269 20,000  Level Seattle Center
02:42AM 47.7625 -118.6439 271° West 235 270 20,000  Level Seattle Center
02:43AM 47.7631 -118.7408 271° West 236 272 20,000  Level Seattle Center
02:44AM 47.7636 -118.8386 271° West 236 272 20,000  Level Seattle Center
02:45AM 47.7644 -118.9375 271° West 239 275 20,000  Level Seattle Center
02:46AM 47.7656 -119.0356 271° West 239 275 20,000  Level Seattle Center
02:47AM 47.7667 -119.1344 270° West 239 275 20,000  Level Seattle Center
02:48AM 47.7669 -119.2331 271° West 239 275 20,000  Level Seattle Center
02:49AM 47.7681 -119.3306 270° West 239 275 20,000  Level Seattle Center
02:50AM 47.7675 -119.4294 271° West 239 275 20,000  Level Seattle Center
02:51AM 47.7681 -119.5261 270° West 236 272 20,000  Level Seattle Center
02:52AM 47.7683 -119.6231 271° West 235 270 20,000  Level Seattle Center
02:53AM 47.7689 -119.7200 270° West 234 269 20,000  Level Seattle Center
02:54AM 47.7686 -119.8144 270° West 233 268 20,000  Level Seattle Center
02:55AM 47.7686 -119.9089 269° West 229 264 20,000  Level Seattle Center
02:56AM 47.7675 -120.0033 271° West 230 265 20,000  Level Seattle Center
02:57AM 47.7689 -120.0989 270° West 231 266 20,000  Level Seattle Center
02:58AM 47.7683 -120.2131 270° West 231 266 20,000  Level Seattle Center
02:59AM 47.7678 -120.3083 270° West 231 266 20,000  Level Seattle Center
03:00AM 47.7681 -120.4019 269° West 229 264 20,000  Level Seattle Center
03:01AM 47.7669 -120.4981 270° West 231 266 20,000  Level Seattle Center
03:02AM 47.7664 -120.5911 269° West 229 264 20,000 -300 Level Seattle Center
03:03AM 47.7653 -120.6856 270° West 228 262 19,400 -840 Descending Seattle Center
03:04AM 47.7653 -120.7878 269° West 243 280 18,400 -1,020 Descending Seattle Center
03:05AM 47.7644 -120.8803 271° West 248 285 17,400 -1,080 Descending Seattle Center
03:06AM 47.7653 -120.9844 270° West 254 292 16,300 -1,020 Descending Seattle Center
03:07AM 47.7647 -121.0894 270° West 257 296 15,400 -1,020 Descending Seattle Center
03:07AM 47.7650 -121.1550 270° West 258 297 14,800 -900 Descending Seattle Center
03:08AM 47.7650 -121.1944 268° West 257 296 14,500 -1,380 Descending Seattle Center
03:08AM 47.7636 -121.2683 266° West 258 297 13,400 -1,500 Descending Seattle Center
03:09AM 47.7622 -121.3008 269° West 259 298 13,000 -1,320 Descending Seattle Center
03:10AM 47.7614 -121.4083 254° West 263 303 11,500 -1,500 Descending Seattle Center
03:11AM 47.7375 -121.5292 250° West 264 304 10,000 -840 Descending Seattle Center
03:12AM 47.7142 -121.6242 248° West 246 283 9,900 -300 Descending Seattle Center
03:13AM 47.6892 -121.7150 251° West 240 276 9,400 -900 Descending Seattle Center
03:14AM 47.6658 -121.8172 261° West 262 302 8,200 -1,200 Descending Seattle Center
03:15AM 47.6539 -121.9228 257° West 262 302 7,100 -1,200 Descending Seattle Center
03:16AM 47.6397 -122.0153 259° West 239 275 5,900 -1,380 Descending Seattle Center
03:17AM 47.6261 -122.1153 276° West 231 266 4,400 -1,440 Descending Seattle Center
03:18AM 47.6300 -122.1664 285° West 236 272 3,700 -1,380 Descending Seattle Center
03:19AM 47.6461 -122.2561 276° West 232 267 2,300 -900 Descending Seattle Center
03:20AM 47.6519 -122.3417 215° Southwest 210 242 2,000 -300 Descending Seattle Center
03:21AM 47.6186 -122.3767 153° Southeast 162 186 1,800 -420 Descending Seattle Center
03:22AM 47.5831 -122.3503 148° Southeast 141 162 1,200 -660 Descending Seattle Center
03:23AM 47.5542 -122.3236 152° Southeast 134 154 500 -480 Descending Seattle Center
03:24AM 47.5167 -122.2939 152° Southeast 118 136 100 -300 Descending Seattle Center